Skip Navigation Links Skip Navigation Links

Current Weather

San Francisco International, San Francisco

For information only: do not use for flight planning or navigation.
Latest weather
Observation time Monday, July 23, 2018 5:56 AM PDT
Local time Monday, July 23, 2018 6:12 AM PDT
Flight conditions Visual Meteorological Conditions
Winds
Wind direction West (280°)
Wind speed 10 mph
Visibility 10 mi.
Sky condition
Ceiling unlimited
Cloud layer few clouds 500 ft.
Cloud layer scattered clouds 800 ft.
Cloud layer scattered clouds 1,300 ft.
Temperature 56°F
Dewpoint 54°F
Altimeter 30.08 in.Hg
Derived measurements
Relative humidity 93%
Density altitude -172 ft.
Sea-level pressure 30.07 in.Hg
Remarks
Corrected report.
Automated weather observing station with precipitation discriminator.
METAR KSFO 231256Z COR 28009KT 10SM FEW005 SCT008 SCT013 13/12 A3008 RMK AO2 SLP184 T01330122

Settings

Location code

InnerDrive.Weather 4.0.6770.0 Release CLR 4.0.30319.42000
Copyright ©2018 Inner Drive Technology. All rights reserved. Portions Copyright ©1986-2018 David Braverman.

Find weather

Site navigation


Skip Navigation Links

Place info

Page info

PayPal - The safer, easier way to pay online!

Return home.

Copyright ©2018 Inner Drive Technology. Purveyors of fine, hand-crafted computer software. Page printed 2018-07-23T13:12:41 UTC.